createdAt,value
2018-06-04T00:01:28.288Z,100050.80
2018-06-04T00:03:59.686Z,100053.17
2018-06-04T00:06:30.261Z,100050.80
2018-06-04T00:09:01.655Z,100058.05
2018-06-04T00:11:32.394Z,100054.20
2018-06-04T00:14:03.638Z,100054.63
2018-06-04T00:16:34.387Z,100054.31
2018-06-04T00:19:05.422Z,100049.98
2018-06-04T00:21:36.614Z,100051.86
2018-06-04T00:24:07.318Z,100046.67
2018-06-04T00:26:38.588Z,100043.99
2018-06-04T00:29:09.709Z,100038.11
2018-06-04T00:31:40.882Z,100044.20
2018-06-04T00:34:11.414Z,100042.97
2018-06-04T00:36:42.261Z,100033.45
2018-06-04T00:39:13.670Z,100042.77
2018-06-04T00:41:44.254Z,100044.53
2018-06-04T00:44:15.660Z,100038.01
2018-06-04T00:46:50.967Z,100045.98
2018-06-04T00:49:20.866Z,100045.77
2018-06-04T00:51:50.630Z,100043.50
2018-06-04T00:54:20.447Z,100045.03
2018-06-04T00:56:50.270Z,100048.56
2018-06-04T00:59:21.930Z,100050.81
2018-06-04T01:01:52.357Z,100039.56
2018-06-04T01:04:23.609Z,100033.48
2018-06-04T01:06:54.319Z,100034.83
2018-06-04T01:09:25.665Z,100041.30
2018-06-04T01:11:56.353Z,100041.70
2018-06-04T01:14:27.657Z,100037.56
2018-06-04T01:16:58.678Z,100041.50
2018-06-04T01:19:29.374Z,100036.75
2018-06-04T01:21:59.570Z,100033.64
2018-06-04T01:24:30.305Z,100032.20
2018-06-04T01:27:00.651Z,100028.91
2018-06-04T01:29:31.390Z,100026.53
2018-06-04T01:32:01.876Z,100026.94
2018-06-04T01:34:32.598Z,100027.34
2018-06-04T01:37:03.272Z,100022.30
2018-06-04T01:39:34.638Z,100022.30
2018-06-04T01:42:05.386Z,100023.52
2018-06-04T01:44:36.651Z,100022.58
2018-06-04T01:47:07.362Z,100014.02
2018-06-04T01:49:38.617Z,100018.03
2018-06-04T01:52:09.297Z,100016.59
2018-06-04T01:54:40.714Z,100020.00
2018-06-04T01:57:11.325Z,100019.56
2018-06-04T01:59:42.694Z,100013.70
2018-06-04T02:02:13.307Z,100018.14
2018-06-04T02:04:44.767Z,100008.81
2018-06-04T02:07:15.310Z,100013.98
2018-06-04T02:09:46.616Z,100012.52
2018-06-04T02:12:17.274Z,100011.71
2018-06-04T02:14:48.671Z,100011.71
2018-06-04T02:17:18.424Z,100019.13
2018-06-04T02:19:49.701Z,100019.95
2018-06-04T02:22:20.315Z,100009.53
2018-06-04T02:24:51.618Z,100012.93
2018-06-04T02:27:22.350Z,100007.03
2018-06-04T02:29:53.630Z,100007.03
2018-06-04T02:32:23.381Z,100011.06
2018-06-04T02:34:53.320Z,100011.88
2018-06-04T02:37:24.754Z,100013.83
2018-06-04T02:39:55.350Z,100011.46
2018-06-04T02:42:27.018Z,100012.05
2018-06-04T02:44:57.508Z,100011.74
2018-06-04T02:47:28.343Z,100007.72
2018-06-04T02:49:59.690Z,100008.03
2018-06-04T02:52:30.338Z,100003.39
2018-06-04T02:55:01.676Z,100006.07
2018-06-04T02:57:32.271Z,100002.67
2018-06-04T03:00:03.674Z,99995.34
2018-06-04T03:02:34.494Z,100001.02
2018-06-04T03:05:05.515Z,100003.17
2018-06-04T03:07:36.279Z,99998.92
2018-06-04T03:10:07.659Z,100000.67
2018-06-04T03:12:38.338Z,99998.70
2018-06-04T03:15:09.700Z,100001.11
2018-06-04T03:17:40.362Z,100005.16
2018-06-04T03:20:11.634Z,100005.26
2018-06-04T03:22:42.364Z,100006.07
2018-06-04T03:25:13.603Z,100002.27
2018-06-04T03:27:44.294Z,99996.59
2018-06-04T03:30:15.567Z,99998.34
2018-06-04T03:32:45.388Z,99992.04
2018-06-04T03:35:16.658Z,99993.37
2018-06-04T03:37:47.322Z,99993.25
2018-06-04T03:40:18.706Z,99984.59
2018-06-04T03:42:49.389Z,99985.03
2018-06-04T03:45:20.950Z,99986.99
2018-06-04T03:47:51.569Z,99981.54
2018-06-04T03:50:22.352Z,99978.33
2018-06-04T03:52:57.638Z,99976.48
2018-06-04T03:55:28.010Z,99982.97
2018-06-04T03:57:57.803Z,99984.44
2018-06-04T04:00:28.239Z,99979.39
2018-06-04T04:02:58.157Z,99976.70
2018-06-04T04:05:28.786Z,99978.67
2018-06-04T04:07:58.591Z,99984.03
2018-06-04T04:10:29.325Z,99987.02
2018-06-04T04:13:00.624Z,99987.43
2018-06-04T04:15:31.303Z,99988.05
2018-06-04T04:18:01.779Z,99987.34
2018-06-04T04:20:32.414Z,99993.45
2018-06-04T04:23:03.630Z,99991.16
2018-06-04T04:25:34.406Z,99995.22
2018-06-04T04:28:05.372Z,99991.00
2018-06-04T04:30:36.688Z,99990.28
2018-06-04T04:33:07.394Z,99992.87
2018-06-04T04:35:38.708Z,99996.27
2018-06-04T04:38:09.261Z,99993.08
2018-06-04T04:40:40.668Z,99993.70
2018-06-04T04:43:11.358Z,99987.92
2018-06-04T04:45:42.646Z,99988.86
2018-06-04T04:48:13.369Z,99995.78
2018-06-04T04:50:44.611Z,99990.00
2018-06-04T04:53:15.449Z,99979.78
2018-06-04T04:55:46.374Z,99984.33
2018-06-04T04:58:16.241Z,99981.23
2018-06-04T05:00:47.762Z,99983.84
2018-06-04T05:03:18.273Z,99987.53
2018-06-04T05:05:49.694Z,99983.52
2018-06-04T05:08:20.246Z,99977.01
2018-06-04T05:10:51.658Z,99983.92
2018-06-04T05:13:22.375Z,99980.09
2018-06-04T05:15:53.693Z,99974.38
2018-06-04T05:18:24.335Z,99975.73
2018-06-04T05:20:55.605Z,99967.56
2018-06-04T05:23:26.323Z,99966.95
2018-06-04T05:25:57.602Z,99976.42
2018-06-04T05:28:28.265Z,99974.23
2018-06-04T05:30:59.706Z,99976.38
2018-06-04T05:33:30.246Z,99966.55
2018-06-04T05:36:01.707Z,99968.16
2018-06-04T05:38:32.276Z,99969.11
2018-06-04T05:41:03.715Z,99969.30
2018-06-04T05:43:34.289Z,99966.80
2018-06-04T05:46:05.748Z,99968.63
2018-06-04T05:48:36.298Z,99966.23
2018-06-04T05:51:07.743Z,99965.67
2018-06-04T05:53:38.385Z,99968.41
2018-06-04T05:56:08.353Z,99966.13
2018-06-04T05:58:39.712Z,99963.22
2018-06-04T06:01:10.526Z,99965.09
2018-06-04T06:03:41.418Z,99967.55
2018-06-04T06:06:12.724Z,99972.61
2018-06-04T06:08:43.865Z,99967.16
2018-06-04T06:11:14.513Z,99968.78
2018-06-04T06:13:45.406Z,99964.19
2018-06-04T06:16:15.374Z,99964.73
2018-06-04T06:18:46.674Z,99964.63
2018-06-04T06:21:17.477Z,99961.59
2018-06-04T06:23:48.737Z,99965.20
2018-06-04T06:26:19.621Z,99954.36
2018-06-04T06:28:54.953Z,99963.14
2018-06-04T06:31:24.811Z,99964.95
2018-06-04T06:33:55.113Z,99965.41
2018-06-04T06:36:24.946Z,99963.25
2018-06-04T06:38:55.286Z,99963.51
2018-06-04T06:41:25.112Z,99963.22
2018-06-04T06:43:55.646Z,99956.50
2018-06-04T06:46:26.351Z,99954.56
2018-06-04T06:48:57.649Z,99946.88
2018-06-04T06:51:28.410Z,99949.51
2018-06-04T06:53:59.648Z,99944.81
2018-06-04T06:56:30.313Z,99948.91
2018-06-04T06:59:01.689Z,99948.01
2018-06-04T07:01:31.564Z,99945.00
2018-06-04T07:04:02.383Z,99945.45
2018-06-04T07:06:33.748Z,99941.34
2018-06-04T07:09:04.738Z,99940.72
2018-06-04T07:11:35.473Z,99933.96
2018-06-04T07:14:06.581Z,99934.78
2018-06-04T07:16:37.317Z,99936.34
2018-06-04T07:19:08.665Z,99934.38
2018-06-04T07:21:39.343Z,99941.47
2018-06-04T07:24:10.609Z,99940.67
2018-06-04T07:26:41.391Z,99939.33
2018-06-04T07:29:12.286Z,99936.84
2018-06-04T07:31:51.934Z,99932.23
2018-06-04T07:34:21.849Z,99934.73
2018-06-04T07:36:51.677Z,99932.45
2018-06-04T07:39:22.042Z,99934.55
2018-06-04T07:41:51.934Z,99936.67
2018-06-04T07:44:21.844Z,99934.49
2018-06-04T07:46:51.837Z,99930.95
2018-06-04T07:49:21.582Z,99925.22
2018-06-04T07:51:51.363Z,99921.77
2018-06-04T07:54:21.561Z,99918.47
2018-06-04T07:56:52.343Z,99924.84
2018-06-04T07:59:23.663Z,99921.47
2018-06-04T08:01:54.379Z,99920.70
2018-06-04T08:04:25.620Z,99927.08
2018-06-04T08:06:56.387Z,99925.95
2018-06-04T08:09:27.244Z,99922.88
2018-06-04T08:11:58.690Z,99923.33
2018-06-04T08:14:29.526Z,99925.16
2018-06-04T08:17:00.345Z,99921.45
2018-06-04T08:19:31.642Z,99920.34
2018-06-04T08:22:02.365Z,99925.14
2018-06-04T08:24:33.698Z,99914.39
2018-06-04T08:27:04.322Z,99916.21
2018-06-04T08:29:35.626Z,99915.79
2018-06-04T08:32:06.103Z,99918.65
2018-06-04T08:34:36.545Z,99915.61
2018-06-04T08:37:07.381Z,99905.19
2018-06-04T08:39:38.238Z,99898.62
2018-06-04T08:42:09.645Z,99903.23
2018-06-04T08:44:40.234Z,99902.16
2018-06-04T08:47:11.629Z,99898.09
2018-06-04T08:49:42.332Z,99895.48
2018-06-04T08:52:12.262Z,99894.23
2018-06-04T08:54:43.599Z,99893.78
2018-06-04T08:57:14.303Z,99891.50
2018-06-04T08:59:45.610Z,99893.40
2018-06-04T09:02:16.358Z,99893.30
2018-06-04T09:04:53.578Z,99892.33
2018-06-04T09:07:23.373Z,99892.01
2018-06-04T09:09:53.131Z,99882.86
2018-06-04T09:12:23.378Z,99880.46
2018-06-04T09:14:53.126Z,99879.13
2018-06-04T09:17:23.198Z,99881.05
2018-06-04T09:19:53.530Z,99879.96
2018-06-04T09:22:24.673Z,99881.88
2018-06-04T09:24:55.305Z,99879.36
2018-06-04T09:27:26.561Z,99873.34
2018-06-04T09:29:57.293Z,99883.47
2018-06-04T09:32:28.554Z,99878.30
2018-06-04T09:34:59.266Z,99876.94
2018-06-04T09:37:30.634Z,99874.84
2018-06-04T09:40:01.418Z,99878.72
2018-06-04T09:42:32.437Z,99877.39
2018-06-04T09:45:03.557Z,99882.89
2018-06-04T09:47:34.403Z,99872.84
2018-06-04T09:50:05.298Z,99872.09
2018-06-04T09:52:35.517Z,99872.13
2018-06-04T09:55:06.302Z,99874.30
2018-06-04T09:57:37.796Z,99871.03
2018-06-04T10:00:08.421Z,99862.91
2018-06-04T10:02:39.254Z,99867.24
2018-06-04T10:05:10.558Z,99865.03
2018-06-04T10:07:41.347Z,99862.61
2018-06-04T10:10:12.562Z,99859.07
2018-06-04T10:12:43.375Z,99860.95
2018-06-04T10:15:14.235Z,99857.66
2018-06-04T10:17:45.937Z,99854.91
2018-06-04T10:20:16.297Z,99853.28
2018-06-04T10:22:47.591Z,99847.80
2018-06-04T10:25:18.312Z,99841.21
2018-06-04T10:27:49.607Z,99844.11
2018-06-04T10:30:20.665Z,99838.05
2018-06-04T10:32:50.444Z,99831.75
2018-06-04T10:35:21.255Z,99830.55
2018-06-04T10:37:52.750Z,99828.58
2018-06-04T10:40:23.250Z,99816.92
2018-06-04T10:42:54.701Z,99819.52
2018-06-04T10:45:25.241Z,99816.37
2018-06-04T10:47:56.657Z,99811.41
2018-06-04T10:50:27.213Z,99810.36
2018-06-04T10:52:58.652Z,99800.64
2018-06-04T10:55:29.317Z,99799.12
2018-06-04T10:58:00.326Z,99796.66
2018-06-04T11:00:31.204Z,99795.13
2018-06-04T11:03:02.582Z,99782.21
2018-06-04T11:05:33.269Z,99789.57
2018-06-04T11:08:04.663Z,99782.73
2018-06-04T11:10:34.394Z,99784.64
2018-06-04T11:13:05.341Z,99787.61
2018-06-04T11:15:36.242Z,99783.34
2018-06-04T11:18:08.038Z,99777.04
2018-06-04T11:20:38.749Z,99776.62
2018-06-04T11:23:09.334Z,99777.37
2018-06-04T11:25:39.689Z,99772.81
2018-06-04T11:28:10.322Z,99772.55
2018-06-04T11:30:41.663Z,99772.39
2018-06-04T11:33:12.256Z,99771.01
2018-06-04T11:35:43.568Z,99761.91
2018-06-04T11:38:14.345Z,99759.42
2018-06-04T11:40:45.281Z,99758.50
2018-06-04T11:43:17.050Z,99754.75
2018-06-04T11:45:47.453Z,99756.55
2018-06-04T11:48:18.452Z,99744.81
2018-06-04T11:50:49.346Z,99750.16
2018-06-04T11:53:20.677Z,99742.48
2018-06-04T11:55:51.406Z,99746.02
2018-06-04T11:58:22.434Z,99736.66
2018-06-04T12:00:54.375Z,99733.96
2018-06-04T12:04:27.346Z,99732.98
2018-06-04T12:06:57.227Z,99729.50
2018-06-04T12:09:26.965Z,99725.93
2018-06-04T12:11:56.959Z,99719.87
2018-06-04T12:14:26.928Z,99716.08
2018-06-04T12:16:57.543Z,99714.96
2018-06-04T12:19:27.399Z,99717.09
2018-06-04T12:21:57.665Z,99713.64
2018-06-04T12:24:27.764Z,99707.30
2018-06-04T12:26:57.908Z,99708.27
2018-06-04T12:29:27.874Z,99700.70
2018-06-04T12:31:57.991Z,99696.17
2018-06-04T12:34:28.119Z,99699.30
2018-06-04T12:36:57.983Z,99697.33
2018-06-04T12:39:27.838Z,99691.77
2018-06-04T12:41:58.045Z,99693.69
2018-06-04T12:44:28.117Z,99690.30
2018-06-04T12:46:58.145Z,99683.69
2018-06-04T12:49:27.981Z,99682.31
2018-06-04T12:51:57.799Z,99678.78
2018-06-04T12:54:27.955Z,99673.28
2018-06-04T12:56:57.943Z,99671.86
2018-06-04T12:59:27.989Z,99676.73
2018-06-04T13:01:57.899Z,99661.26
2018-06-04T13:04:28.045Z,99663.33
2018-06-04T13:06:58.314Z,99652.88
2018-06-04T13:09:28.193Z,99662.43
2018-06-04T13:11:58.006Z,99652.68
2018-06-04T13:14:27.930Z,99656.06
2018-06-04T13:16:58.019Z,99657.96
2018-06-04T13:19:28.092Z,99652.64
2018-06-04T13:22:04.133Z,99644.39
2018-06-04T13:24:34.056Z,99638.29
2018-06-04T13:27:04.295Z,99634.77
2018-06-04T13:29:34.197Z,99634.41
2018-06-04T13:32:04.138Z,99634.48
2018-06-04T13:34:34.033Z,99631.06
2018-06-04T13:37:03.961Z,99624.22
2018-06-04T13:39:34.787Z,99624.80
2018-06-04T13:42:05.554Z,99613.25
2018-06-04T13:44:36.383Z,99614.99
2018-06-04T13:47:06.285Z,99611.91
2018-06-04T13:49:36.458Z,99614.80
2018-06-04T13:52:07.353Z,99608.81
2018-06-04T13:54:38.075Z,99606.42
2018-06-04T13:57:07.958Z,99600.42
2018-06-04T13:59:37.950Z,99592.35
2018-06-04T14:02:08.142Z,99588.06
2018-06-04T14:04:38.422Z,99584.47
2018-06-04T14:07:08.325Z,99579.27
2018-06-04T14:09:38.782Z,99578.99
2018-06-04T14:12:09.365Z,99582.05
2018-06-04T14:14:39.273Z,99575.48
2018-06-04T14:17:09.206Z,99571.45
2018-06-04T14:19:39.832Z,99572.36
2018-06-04T14:22:09.946Z,99563.48
2018-06-04T14:24:39.955Z,99559.42
2018-06-04T14:27:10.294Z,99562.30
2018-06-04T14:29:40.280Z,99565.56
2018-06-04T14:32:10.474Z,99566.17
2018-06-04T14:34:40.573Z,99568.71
2018-06-04T14:37:10.400Z,99564.80
2018-06-04T14:42:09.041Z,99562.19
2018-06-04T14:44:39.227Z,99561.41
2018-06-04T14:47:09.301Z,99556.94
2018-06-04T14:49:40.143Z,99550.78
2018-06-04T14:52:10.753Z,99547.02
2018-06-04T14:54:41.430Z,99545.02
2018-06-04T14:57:11.682Z,99543.71
2018-06-04T14:59:42.499Z,99538.40
2018-06-04T15:02:12.590Z,99532.25
2018-06-04T15:04:42.657Z,99531.45
2018-06-04T15:07:14.245Z,99487.17
2018-06-04T15:09:44.265Z,99526.69
2018-06-04T15:12:14.378Z,99526.84
2018-06-04T15:14:44.571Z,99529.70
2018-06-04T15:17:15.460Z,99525.83
2018-06-04T15:19:45.473Z,99524.39
2018-06-04T15:22:15.840Z,99521.79
2018-06-04T15:24:45.806Z,99523.20
2018-06-04T15:27:16.495Z,99525.84
2018-06-04T15:29:47.025Z,99520.61
2018-06-04T15:32:21.777Z,99529.66
2018-06-04T15:34:51.702Z,99518.09
2018-06-04T15:37:22.053Z,99512.39
2018-06-04T15:39:51.900Z,99518.93
2018-06-04T15:42:21.601Z,99517.16
2018-06-04T15:44:51.419Z,99510.88
2018-06-04T15:47:21.118Z,99510.25
2018-06-04T15:49:50.879Z,99506.02
2018-06-04T15:52:21.061Z,99502.28
2018-06-04T15:54:50.894Z,99507.20
2018-06-04T15:57:20.441Z,99504.51
2018-06-04T15:59:51.289Z,99498.05
2018-06-04T16:02:22.809Z,99494.81
2018-06-04T16:04:53.321Z,99489.67
2018-06-04T16:07:24.428Z,99482.09
2018-06-04T16:09:55.205Z,99488.59
2018-06-04T16:12:26.442Z,99489.11
2018-06-04T16:14:57.179Z,99487.83
2018-06-04T16:17:28.402Z,99477.60
2018-06-04T16:19:58.138Z,99475.34
2018-06-04T16:22:29.329Z,99473.89
2018-06-04T16:25:00.538Z,99467.53
2018-06-04T16:27:31.070Z,99466.66
2018-06-04T16:30:02.401Z,99460.80
2018-06-04T16:32:33.358Z,99459.39
2018-06-04T16:35:04.194Z,99456.64
2018-06-04T16:37:35.565Z,99457.52
2018-06-04T16:40:06.233Z,99456.64
2018-06-04T16:42:37.453Z,99456.14
2018-06-04T16:45:08.224Z,99457.05
2018-06-04T16:47:39.518Z,99459.50
2018-06-04T16:50:10.171Z,99455.88
2018-06-04T16:52:41.105Z,99456.11
2018-06-04T16:55:13.047Z,99460.47
2018-06-04T16:57:43.348Z,99468.16
2018-06-04T17:00:13.523Z,99468.63
2018-06-04T17:02:44.865Z,99461.20
2018-06-04T17:05:15.297Z,99458.02
2018-06-04T17:07:46.984Z,99459.02
2018-06-04T17:10:17.393Z,99460.94
2018-06-04T17:12:47.043Z,99457.50
2018-06-04T17:15:18.425Z,99453.42
2018-06-04T17:17:49.097Z,99454.86
2018-06-04T17:20:20.682Z,99450.69
2018-06-04T17:22:51.109Z,99450.52
2018-06-04T17:25:22.480Z,99453.79
2018-06-04T17:27:53.154Z,99452.34
2018-06-04T17:30:24.926Z,99448.92
2018-06-04T17:32:55.628Z,99452.94
2018-06-04T17:35:26.149Z,99460.16
2018-06-04T17:37:57.987Z,99453.48
2018-06-04T17:40:28.370Z,99450.65
2018-06-04T17:42:59.419Z,99455.16
2018-06-04T17:45:30.005Z,99449.27
2018-06-04T17:48:01.000Z,99447.70
2018-06-04T17:50:32.565Z,99440.76
2018-06-04T17:53:03.034Z,99452.33
2018-06-04T17:55:33.812Z,99450.57
2018-06-04T17:58:05.873Z,99449.87
2018-06-04T18:00:35.857Z,99454.09
2018-06-04T18:03:06.919Z,99442.47
2018-06-04T18:05:37.491Z,99442.64
2018-06-04T18:08:08.725Z,99437.89
2018-06-04T18:10:39.202Z,99445.13
2018-06-04T18:13:10.530Z,99442.77
2018-06-04T18:15:41.229Z,99444.48
2018-06-04T18:18:12.489Z,99443.48
2018-06-04T18:20:43.365Z,99442.80
2018-06-04T18:23:16.625Z,99448.83
2018-06-04T18:25:46.299Z,99454.89
2018-06-04T18:28:16.528Z,99456.02
2018-06-04T18:30:47.191Z,99453.09
2018-06-04T18:33:17.622Z,99450.20
2018-06-04T18:35:48.155Z,99457.88
2018-06-04T18:38:19.393Z,99453.84
2018-06-04T18:40:50.406Z,99449.80
2018-06-04T18:43:20.113Z,99455.27
2018-06-04T18:45:51.477Z,99452.84
2018-06-04T18:48:22.244Z,99457.77
2018-06-04T18:50:53.551Z,99455.60
2018-06-04T18:53:24.707Z,99455.08
2018-06-04T18:55:55.225Z,99459.98
2018-06-04T18:58:26.513Z,99453.46
2018-06-04T19:00:57.259Z,99459.71
2018-06-04T19:03:28.521Z,99464.33
2018-06-04T19:05:59.194Z,99461.91
2018-06-04T19:08:31.029Z,99460.83
2018-06-04T19:11:02.382Z,99466.55
2018-06-04T19:13:32.927Z,99461.93
2018-06-04T19:16:04.212Z,99467.34
2018-06-04T19:18:34.554Z,99481.20
2018-06-04T19:21:05.297Z,99481.17
2018-06-04T19:23:37.005Z,99485.77
2018-06-04T19:26:07.353Z,99485.51
2018-06-04T19:31:16.401Z,99487.91
2018-06-04T19:33:46.024Z,99496.59
2018-06-04T19:36:16.072Z,99493.05
2018-06-04T19:38:45.724Z,99490.05
2018-06-04T19:41:15.356Z,99495.46
2018-06-04T19:43:45.134Z,99496.00
2018-06-04T19:46:15.445Z,99506.23
2018-06-04T19:48:46.454Z,99508.66
2018-06-04T19:51:17.127Z,99512.20
2018-06-04T19:53:48.655Z,99502.70
2018-06-04T19:56:19.303Z,99507.27
2018-06-04T19:58:50.541Z,99510.80
2018-06-04T20:01:21.721Z,99510.77
2018-06-04T20:03:52.107Z,99508.87
2018-06-04T20:06:23.646Z,99509.67
2018-06-04T20:08:54.104Z,99517.78
2018-06-04T20:11:25.325Z,99518.31
2018-06-04T20:13:56.452Z,99511.78
2018-06-04T20:16:27.033Z,99513.66
2018-06-04T20:18:58.258Z,99517.70
2018-06-04T20:21:28.384Z,99516.08
2018-06-04T20:23:59.472Z,99520.67
2018-06-04T20:26:30.141Z,99523.91
2018-06-04T20:29:01.416Z,99526.31
2018-06-04T20:31:32.726Z,99523.88
2018-06-04T20:34:03.101Z,99525.75
2018-06-04T20:36:34.383Z,99530.87
2018-06-04T20:39:07.279Z,99533.02
2018-06-04T20:41:37.081Z,99535.98
2018-06-04T20:44:07.648Z,99527.02
2018-06-04T20:46:38.073Z,99528.89
2018-06-04T20:49:09.325Z,99531.59
2018-06-04T20:51:39.123Z,99529.97
2018-06-04T20:54:10.582Z,99532.64
2018-06-04T20:56:40.990Z,99532.92
2018-06-04T20:59:12.238Z,99533.44
2018-06-04T21:01:43.486Z,99533.44
2018-06-04T21:04:13.114Z,99528.78
2018-06-04T21:06:44.295Z,99530.41
2018-06-04T21:09:15.442Z,99528.78
2018-06-04T21:11:46.047Z,99529.30
2018-06-04T21:14:17.309Z,99528.70
2018-06-04T21:16:48.325Z,99528.95
2018-06-04T21:19:19.455Z,99531.66
2018-06-04T21:21:50.041Z,99531.93
2018-06-04T21:24:21.413Z,99535.44
2018-06-04T21:26:51.021Z,99532.69
2018-06-04T21:29:22.265Z,99535.67
2018-06-04T21:31:52.550Z,99541.25
2018-06-04T21:34:23.144Z,99536.91
2018-06-04T21:36:54.388Z,99541.76
2018-06-04T21:39:25.413Z,99540.09
2018-06-04T21:41:56.022Z,99543.55
2018-06-04T21:44:27.282Z,99545.46
2018-06-04T21:46:58.333Z,99543.00
2018-06-04T21:49:29.587Z,99542.66
2018-06-04T21:52:00.086Z,99542.33
2018-06-04T21:54:31.424Z,99540.92
2018-06-04T21:57:02.032Z,99539.00
2018-06-04T21:59:33.381Z,99537.33
2018-06-04T22:02:04.501Z,99540.02
2018-06-04T22:04:35.122Z,99537.55
2018-06-04T22:07:06.450Z,99534.55
2018-06-04T22:09:37.108Z,99538.29
2018-06-04T22:12:08.347Z,99537.72
2018-06-04T22:14:39.500Z,99535.25
2018-06-04T22:17:10.166Z,99533.88
2018-06-04T22:19:41.757Z,99534.63
2018-06-04T22:22:12.025Z,99539.98
2018-06-04T22:24:43.307Z,99542.64
2018-06-04T22:27:14.465Z,99543.98
2018-06-04T22:29:45.141Z,99545.84
2018-06-04T22:32:16.713Z,99547.12
2018-06-04T22:34:47.138Z,99543.05
2018-06-04T22:37:18.330Z,99544.63
2018-06-04T22:39:49.366Z,99545.97
2018-06-04T22:42:20.046Z,99541.86
2018-06-04T22:44:51.295Z,99541.85
2018-06-04T22:47:21.363Z,99535.32
2018-06-04T22:49:52.546Z,99525.55
2018-06-04T22:52:23.024Z,99526.34
2018-06-04T22:54:54.365Z,99532.53
2018-06-04T22:57:25.036Z,99527.58
2018-06-04T22:59:56.294Z,99524.86
2018-06-04T23:02:27.430Z,99526.14
2018-06-04T23:04:58.138Z,99531.77
2018-06-04T23:07:29.358Z,99523.09
2018-06-04T23:10:00.066Z,99526.03
2018-06-04T23:12:31.259Z,99522.73
2018-06-04T23:15:02.430Z,99527.01
2018-06-04T23:17:33.109Z,99525.02
2018-06-04T23:20:04.478Z,99526.02
2018-06-04T23:22:35.200Z,99522.45
2018-06-04T23:25:06.450Z,99521.88
2018-06-04T23:27:36.133Z,99519.61
2018-06-04T23:30:07.414Z,99526.09
2018-06-04T23:32:38.381Z,99523.65
2018-06-04T23:35:09.420Z,99519.54
2018-06-04T23:37:40.060Z,99525.16
2018-06-04T23:40:11.302Z,99526.22
2018-06-04T23:42:42.392Z,99523.50
2018-06-04T23:45:13.038Z,99520.87
2018-06-04T23:47:44.278Z,99524.27
2018-06-04T23:50:15.685Z,99521.55
2018-06-04T23:52:46.298Z,99518.27
2018-06-04T23:55:17.906Z,99521.78
2018-06-04T23:57:48.334Z,99516.58
